createdAt,value
2017-07-09T00:01:41.856Z,18.99
2017-07-09T00:04:11.317Z,19.04
2017-07-09T00:06:40.800Z,19.10
2017-07-09T00:09:10.268Z,19.04
2017-07-09T00:11:39.758Z,19.13
2017-07-09T00:14:09.212Z,19.12
2017-07-09T00:16:38.685Z,19.02
2017-07-09T00:19:08.190Z,18.98
2017-07-09T00:21:37.659Z,18.96
2017-07-09T00:24:07.152Z,18.94
2017-07-09T00:26:36.628Z,18.96
2017-07-09T00:29:06.091Z,18.94
2017-07-09T00:31:35.596Z,18.89
2017-07-09T00:34:05.055Z,18.93
2017-07-09T00:36:34.524Z,18.96
2017-07-09T00:39:03.723Z,18.84
2017-07-09T00:41:33.194Z,18.87
2017-07-09T00:44:02.671Z,18.97
2017-07-09T00:46:32.143Z,18.91
2017-07-09T00:49:01.610Z,18.83
2017-07-09T00:51:31.772Z,18.77
2017-07-09T00:54:01.266Z,18.83
2017-07-09T00:56:30.744Z,18.76
2017-07-09T00:59:00.203Z,18.93
2017-07-09T01:01:29.695Z,18.92
2017-07-09T01:03:59.171Z,18.94
2017-07-09T01:06:28.635Z,18.96
2017-07-09T01:08:58.121Z,19.02
2017-07-09T01:11:27.583Z,18.92
2017-07-09T01:13:57.053Z,19.02
2017-07-09T01:16:26.539Z,19.06
2017-07-09T01:18:56.013Z,18.98
2017-07-09T01:21:25.504Z,19.02
2017-07-09T01:23:54.963Z,18.87
2017-07-09T01:26:24.427Z,18.84
2017-07-09T01:28:53.914Z,18.81
2017-07-09T01:31:23.387Z,18.65
2017-07-09T01:33:52.842Z,18.67
2017-07-09T01:36:22.326Z,18.68
2017-07-09T01:38:51.807Z,18.65
2017-07-09T01:41:22.197Z,18.66
2017-07-09T01:43:51.669Z,18.59
2017-07-09T01:46:21.139Z,18.55
2017-07-09T01:48:50.624Z,18.60
2017-07-09T01:51:20.119Z,18.54
2017-07-09T01:53:49.607Z,18.49
2017-07-09T01:56:18.782Z,18.41
2017-07-09T01:58:47.744Z,18.27
2017-07-09T02:01:17.227Z,18.33
2017-07-09T02:03:46.664Z,18.32
2017-07-09T02:06:16.129Z,18.22
2017-07-09T02:08:45.591Z,18.32
2017-07-09T02:11:15.037Z,18.20
2017-07-09T02:13:44.509Z,18.21
2017-07-09T02:16:13.976Z,18.09
2017-07-09T02:18:43.430Z,18.17
2017-07-09T02:21:12.886Z,18.16
2017-07-09T02:23:42.335Z,18.16
2017-07-09T02:26:11.797Z,18.06
2017-07-09T02:28:41.264Z,18.10
2017-07-09T02:31:10.738Z,18.14
2017-07-09T02:33:40.998Z,18.13
2017-07-09T02:36:10.463Z,18.10
2017-07-09T02:38:39.926Z,17.98
2017-07-09T02:41:09.385Z,17.94
2017-07-09T02:43:38.842Z,17.91
2017-07-09T02:46:08.385Z,17.93
2017-07-09T02:48:37.839Z,18.01
2017-07-09T02:51:07.302Z,17.98
2017-07-09T02:53:36.766Z,17.94
2017-07-09T02:56:06.253Z,17.94
2017-07-09T02:58:35.732Z,17.96
2017-07-09T03:01:05.217Z,17.88
2017-07-09T03:03:34.706Z,17.75
2017-07-09T03:06:04.164Z,17.65
2017-07-09T03:08:33.624Z,17.66
2017-07-09T03:11:03.106Z,17.69
2017-07-09T03:13:32.614Z,17.59
2017-07-09T03:16:02.071Z,17.65
2017-07-09T03:18:31.541Z,17.67
2017-07-09T03:21:01.008Z,17.74
2017-07-09T03:23:30.473Z,17.72
2017-07-09T03:25:59.937Z,17.68
2017-07-09T03:28:29.402Z,17.61
2017-07-09T03:30:58.862Z,17.61
2017-07-09T03:33:28.325Z,17.58
2017-07-09T03:35:57.788Z,17.56
2017-07-09T03:38:27.277Z,17.69
2017-07-09T03:40:56.748Z,17.86
2017-07-09T03:43:26.196Z,17.96
2017-07-09T03:45:55.654Z,18.03
2017-07-09T03:48:25.175Z,18.03
2017-07-09T03:50:54.454Z,18.07
2017-07-09T03:53:24.165Z,17.98
2017-07-09T03:55:53.638Z,17.96
2017-07-09T03:58:22.754Z,17.96
2017-07-09T04:00:52.214Z,18.07
2017-07-09T04:03:21.675Z,18.08
2017-07-09T04:05:51.131Z,18.02
2017-07-09T04:08:20.618Z,18.09
2017-07-09T04:10:50.059Z,18.10
2017-07-09T04:13:19.535Z,18.26
2017-07-09T04:15:48.989Z,18.28
2017-07-09T04:18:18.445Z,18.36
2017-07-09T04:20:47.600Z,18.51
2017-07-09T04:23:17.041Z,18.58
2017-07-09T04:25:46.533Z,18.60
2017-07-09T04:28:15.977Z,18.69
2017-07-09T04:30:45.438Z,18.71
2017-07-09T04:33:14.926Z,18.78
2017-07-09T04:35:44.382Z,18.83
2017-07-09T04:38:13.833Z,18.86
2017-07-09T04:40:43.302Z,18.92
2017-07-09T04:43:12.771Z,19.05
2017-07-09T04:45:42.221Z,19.05
2017-07-09T04:48:11.674Z,19.12
2017-07-09T04:50:41.141Z,19.21
2017-07-09T04:53:10.650Z,19.29
2017-07-09T04:55:40.106Z,19.43
2017-07-09T04:58:09.564Z,19.46
2017-07-09T05:00:39.021Z,19.55
2017-07-09T05:03:08.487Z,19.62
2017-07-09T05:05:37.954Z,19.73
2017-07-09T05:08:07.091Z,19.85
2017-07-09T05:10:36.811Z,19.95
2017-07-09T05:13:06.281Z,20.10
2017-07-09T05:15:35.734Z,20.26
2017-07-09T05:18:05.210Z,20.44
2017-07-09T05:20:34.677Z,20.48
2017-07-09T05:23:04.160Z,20.61
2017-07-09T05:25:33.721Z,20.77
2017-07-09T05:28:03.168Z,20.78
2017-07-09T05:30:32.630Z,20.87
2017-07-09T05:33:02.097Z,21.02
2017-07-09T05:35:31.559Z,21.09
2017-07-09T05:38:01.012Z,21.30
2017-07-09T05:40:30.477Z,21.36
2017-07-09T05:42:59.946Z,21.53
2017-07-09T05:45:29.394Z,21.56
2017-07-09T05:47:58.889Z,21.59
2017-07-09T05:50:28.339Z,21.72
2017-07-09T05:52:57.812Z,21.78
2017-07-09T05:55:27.268Z,21.85
2017-07-09T05:57:56.718Z,21.99
2017-07-09T06:00:26.171Z,22.12
2017-07-09T06:02:55.654Z,22.29
2017-07-09T06:05:25.118Z,22.42
2017-07-09T06:07:54.584Z,22.60
2017-07-09T06:10:24.047Z,22.64
2017-07-09T06:12:53.503Z,22.76
2017-07-09T06:15:22.966Z,22.90
2017-07-09T06:17:52.434Z,23.04
2017-07-09T06:20:21.898Z,23.10
2017-07-09T06:22:51.389Z,23.23
2017-07-09T06:25:22.497Z,23.35
2017-07-09T06:27:51.965Z,23.40
2017-07-09T06:30:21.287Z,23.46
2017-07-09T06:32:50.766Z,23.60
2017-07-09T06:35:20.220Z,23.52
2017-07-09T06:37:49.682Z,23.64
2017-07-09T06:40:19.175Z,23.63
2017-07-09T06:42:48.634Z,23.66
2017-07-09T06:45:18.959Z,23.61
2017-07-09T06:47:48.420Z,23.77
2017-07-09T06:50:17.882Z,23.86
2017-07-09T06:52:47.353Z,23.88
2017-07-09T06:55:16.854Z,24.00
2017-07-09T06:57:46.289Z,24.03
2017-07-09T07:00:15.765Z,23.96
2017-07-09T07:02:45.238Z,23.97
2017-07-09T07:05:15.002Z,24.07
2017-07-09T07:07:44.468Z,24.34
2017-07-09T07:10:13.928Z,24.46
2017-07-09T07:12:43.393Z,24.67
2017-07-09T07:15:12.874Z,24.78
2017-07-09T07:17:42.342Z,24.80
2017-07-09T07:20:11.801Z,24.87
2017-07-09T07:22:41.262Z,24.86
2017-07-09T07:25:10.748Z,25.17
2017-07-09T07:27:40.228Z,25.23
2017-07-09T07:30:09.376Z,25.54
2017-07-09T07:32:38.879Z,25.64
2017-07-09T07:35:08.393Z,25.64
2017-07-09T07:37:37.914Z,25.63
2017-07-09T07:40:07.390Z,25.68
2017-07-09T07:42:36.830Z,25.61
2017-07-09T07:45:06.303Z,25.85
2017-07-09T07:47:35.795Z,26.15
2017-07-09T07:50:05.270Z,26.22
2017-07-09T07:52:34.732Z,26.25
2017-07-09T07:55:04.205Z,26.24
2017-07-09T07:57:33.657Z,26.56
2017-07-09T08:00:03.133Z,26.88
2017-07-09T08:02:32.594Z,26.99
2017-07-09T08:05:02.109Z,26.99
2017-07-09T08:07:31.577Z,26.85
2017-07-09T08:10:01.041Z,27.04
2017-07-09T08:12:30.491Z,27.14
2017-07-09T08:14:59.954Z,27.30
2017-07-09T08:17:29.431Z,27.33
2017-07-09T08:19:58.911Z,27.59
2017-07-09T08:22:28.424Z,27.99
2017-07-09T08:24:57.888Z,28.25
2017-07-09T08:27:27.341Z,28.16
2017-07-09T08:29:56.807Z,28.64
2017-07-09T08:32:26.273Z,29.20
2017-07-09T08:34:55.720Z,28.95
2017-07-09T08:37:25.162Z,28.50
2017-07-09T08:39:54.631Z,28.13
2017-07-09T08:42:24.070Z,28.42
2017-07-09T08:44:53.515Z,28.15
2017-07-09T08:47:22.969Z,28.27
2017-07-09T08:49:52.429Z,27.99
2017-07-09T08:52:21.887Z,28.50
2017-07-09T08:54:51.361Z,28.28
2017-07-09T08:57:20.824Z,28.39
2017-07-09T08:59:50.267Z,28.10
2017-07-09T09:02:19.720Z,28.37
2017-07-09T09:04:49.174Z,28.33
2017-07-09T09:07:18.615Z,28.52
2017-07-09T09:09:48.053Z,28.67
2017-07-09T09:12:17.518Z,29.01
2017-07-09T09:14:47.015Z,28.36
2017-07-09T09:17:16.480Z,28.57
2017-07-09T09:19:45.930Z,28.56
2017-07-09T09:22:15.373Z,28.68
2017-07-09T09:24:44.855Z,28.69
2017-07-09T09:27:13.962Z,28.52
2017-07-09T09:29:43.408Z,28.70
2017-07-09T09:32:12.857Z,29.09
2017-07-09T09:34:42.317Z,29.42
2017-07-09T09:37:11.809Z,29.34
2017-07-09T09:39:41.255Z,29.46
2017-07-09T09:42:10.710Z,29.17
2017-07-09T09:44:40.147Z,29.15
2017-07-09T09:47:09.607Z,29.31
2017-07-09T09:49:38.710Z,29.05
2017-07-09T09:52:08.165Z,28.96
2017-07-09T09:54:37.617Z,28.76
2017-07-09T09:57:07.072Z,29.22
2017-07-09T09:59:36.543Z,29.25
2017-07-09T10:02:05.998Z,29.35
2017-07-09T10:04:35.441Z,29.24
2017-07-09T10:07:04.885Z,29.16
2017-07-09T10:09:34.337Z,29.08
2017-07-09T10:12:03.786Z,29.29
2017-07-09T10:14:33.254Z,29.52
2017-07-09T10:17:02.713Z,29.96
2017-07-09T10:19:32.147Z,30.15
2017-07-09T10:22:01.613Z,29.81
2017-07-09T10:24:31.092Z,29.94
2017-07-09T10:27:00.544Z,29.69
2017-07-09T10:29:30.017Z,29.82
2017-07-09T10:31:59.463Z,29.95
2017-07-09T10:34:28.905Z,29.95
2017-07-09T10:36:58.365Z,29.72
2017-07-09T10:39:27.829Z,29.79
2017-07-09T10:41:57.272Z,30.06
2017-07-09T10:44:26.737Z,29.35
2017-07-09T10:46:56.214Z,29.59
2017-07-09T10:49:25.709Z,29.18
2017-07-09T10:51:55.142Z,29.59
2017-07-09T10:54:24.584Z,29.62
2017-07-09T10:56:54.034Z,29.50
2017-07-09T10:59:23.470Z,29.56
2017-07-09T11:01:52.936Z,29.73
2017-07-09T11:04:22.398Z,29.29
2017-07-09T11:06:51.850Z,29.25
2017-07-09T11:09:21.301Z,29.28
2017-07-09T11:11:50.740Z,29.01
2017-07-09T11:14:20.175Z,28.84
2017-07-09T11:16:49.638Z,28.94
2017-07-09T11:19:18.738Z,29.16
2017-07-09T11:21:48.186Z,28.76
2017-07-09T11:24:17.689Z,28.42
2017-07-09T11:26:47.162Z,28.57
2017-07-09T11:29:16.834Z,28.24
2017-07-09T11:31:46.291Z,27.97
2017-07-09T11:34:15.741Z,27.85
2017-07-09T11:36:45.202Z,27.91
2017-07-09T11:39:14.656Z,28.01
2017-07-09T11:41:44.089Z,27.89
2017-07-09T11:44:13.577Z,27.89
2017-07-09T11:46:43.048Z,27.85
2017-07-09T11:49:12.473Z,27.88
2017-07-09T11:51:41.935Z,27.95
2017-07-09T11:54:11.391Z,27.73
2017-07-09T11:56:40.833Z,27.73
2017-07-09T11:59:10.286Z,27.34
2017-07-09T12:01:39.740Z,27.23
2017-07-09T12:04:09.197Z,27.26
2017-07-09T12:06:38.293Z,27.42
2017-07-09T12:09:08.467Z,27.46
2017-07-09T12:11:37.940Z,27.52
2017-07-09T12:14:07.394Z,27.59
2017-07-09T12:16:36.850Z,27.40
2017-07-09T12:19:06.313Z,27.42
2017-07-09T12:21:35.757Z,27.87
2017-07-09T12:24:05.218Z,28.17
2017-07-09T12:26:34.697Z,28.50
2017-07-09T12:29:04.142Z,28.76
2017-07-09T12:31:33.592Z,29.06
2017-07-09T12:34:03.039Z,28.84
2017-07-09T12:36:32.494Z,29.08
2017-07-09T12:39:01.946Z,30.47
2017-07-09T12:41:31.418Z,31.43
2017-07-09T12:44:00.700Z,32.22
2017-07-09T12:46:30.153Z,32.28
2017-07-09T12:48:59.614Z,31.50
2017-07-09T12:51:29.065Z,31.47
2017-07-09T12:53:58.333Z,31.48
2017-07-09T12:56:27.776Z,31.37
2017-07-09T12:58:57.231Z,31.77
2017-07-09T13:01:26.691Z,32.60
2017-07-09T13:03:56.129Z,33.51
2017-07-09T13:06:25.620Z,34.54
2017-07-09T13:08:55.113Z,33.99
2017-07-09T13:11:24.368Z,34.16
2017-07-09T13:13:53.814Z,34.48
2017-07-09T13:16:23.269Z,34.95
2017-07-09T13:18:52.803Z,34.82
2017-07-09T13:21:22.277Z,35.30
2017-07-09T13:23:51.534Z,36.08
2017-07-09T13:26:21.030Z,35.53
2017-07-09T13:28:50.464Z,35.76
2017-07-09T13:31:19.927Z,35.51
2017-07-09T13:33:49.493Z,36.16
2017-07-09T13:36:19.185Z,37.79
2017-07-09T13:38:48.647Z,39.70
2017-07-09T13:41:18.100Z,38.66
2017-07-09T13:43:47.622Z,36.87
2017-07-09T13:46:16.726Z,36.33
2017-07-09T13:48:46.094Z,36.51
2017-07-09T13:51:15.555Z,37.15
2017-07-09T13:53:44.803Z,37.33
2017-07-09T13:56:14.317Z,37.25
2017-07-09T13:58:43.771Z,36.53
2017-07-09T14:01:13.225Z,36.59
2017-07-09T14:03:42.691Z,36.21
2017-07-09T14:06:12.297Z,36.81
2017-07-09T14:08:41.979Z,38.00
2017-07-09T14:11:11.450Z,38.57
2017-07-09T14:13:41.219Z,39.10
2017-07-09T14:16:10.495Z,38.87
2017-07-09T14:18:40.080Z,37.80
2017-07-09T14:21:09.551Z,36.82
2017-07-09T14:23:39.043Z,36.41
2017-07-09T14:26:08.501Z,36.43
2017-07-09T14:28:37.968Z,35.48
2017-07-09T14:31:07.440Z,34.88
2017-07-09T14:33:36.887Z,34.56
2017-07-09T14:36:06.364Z,34.80
2017-07-09T14:38:35.987Z,35.38
2017-07-09T14:41:05.415Z,35.45
2017-07-09T14:43:34.900Z,35.60
2017-07-09T14:46:04.367Z,35.31
2017-07-09T14:48:33.795Z,35.25
2017-07-09T14:51:03.085Z,36.16
2017-07-09T14:53:32.543Z,37.86
2017-07-09T14:56:02.078Z,38.82
2017-07-09T14:58:31.513Z,39.49
2017-07-09T15:01:00.968Z,40.56
2017-07-09T15:03:31.085Z,41.56
2017-07-09T15:06:00.630Z,41.23
2017-07-09T15:08:30.523Z,41.71
2017-07-09T15:11:01.082Z,42.00
2017-07-09T15:13:31.811Z,42.26
2017-07-09T15:16:02.113Z,41.30
2017-07-09T15:18:33.483Z,41.05
2017-07-09T15:21:04.203Z,41.44
2017-07-09T15:23:34.505Z,41.85
2017-07-09T15:26:04.609Z,41.69
2017-07-09T15:28:35.122Z,42.45
2017-07-09T15:31:05.144Z,42.37
2017-07-09T15:33:35.408Z,42.26
2017-07-09T15:36:05.419Z,41.76
2017-07-09T15:38:36.303Z,41.55
2017-07-09T15:41:06.896Z,41.95
2017-07-09T15:43:36.917Z,42.20
2017-07-09T15:46:07.218Z,42.48
2017-07-09T15:48:37.617Z,42.49
2017-07-09T15:51:07.480Z,42.65
2017-07-09T15:53:37.449Z,42.69
2017-07-09T15:56:08.498Z,42.81
2017-07-09T15:58:38.902Z,42.62
2017-07-09T16:01:09.062Z,41.53
2017-07-09T16:03:39.599Z,41.81
2017-07-09T16:06:09.626Z,41.52
2017-07-09T16:08:39.829Z,40.27
2017-07-09T16:11:10.006Z,40.41
2017-07-09T16:13:40.465Z,40.18
2017-07-09T16:16:10.321Z,41.08
2017-07-09T16:18:40.455Z,40.59
2017-07-09T16:21:10.625Z,40.05
2017-07-09T16:23:40.907Z,39.70
2017-07-09T16:26:10.964Z,39.65
2017-07-09T16:28:41.739Z,39.91
2017-07-09T16:31:12.070Z,39.83
2017-07-09T16:33:42.591Z,40.31
2017-07-09T16:36:12.408Z,40.16
2017-07-09T16:38:42.275Z,40.18
2017-07-09T16:41:12.387Z,40.10
2017-07-09T16:43:42.351Z,39.68
2017-07-09T16:46:12.771Z,39.99
2017-07-09T16:48:42.742Z,39.85
2017-07-09T16:51:13.390Z,39.73
2017-07-09T16:53:43.444Z,40.10
2017-07-09T16:56:13.541Z,40.05
2017-07-09T16:58:42.997Z,39.28
2017-07-09T17:01:12.450Z,38.17
2017-07-09T17:03:41.926Z,37.01
2017-07-09T17:06:11.392Z,35.52
2017-07-09T17:08:40.823Z,34.61
2017-07-09T17:11:10.299Z,34.21
2017-07-09T17:13:39.731Z,34.15
2017-07-09T17:16:09.175Z,33.44
2017-07-09T17:18:38.639Z,33.14
2017-07-09T17:21:08.096Z,33.10
2017-07-09T17:23:37.553Z,32.82
2017-07-09T17:26:07.005Z,32.34
2017-07-09T17:28:36.515Z,31.89
2017-07-09T17:31:05.986Z,31.84
2017-07-09T17:33:35.464Z,31.45
2017-07-09T17:36:04.902Z,31.19
2017-07-09T17:38:34.347Z,31.07
2017-07-09T17:41:03.801Z,31.02
2017-07-09T17:43:33.285Z,30.82
2017-07-09T17:46:02.737Z,30.24
2017-07-09T17:48:32.193Z,30.07
2017-07-09T17:51:01.331Z,30.02
2017-07-09T17:53:30.808Z,29.75
2017-07-09T17:56:00.298Z,29.46
2017-07-09T17:58:29.873Z,29.02
2017-07-09T18:00:59.326Z,28.56
2017-07-09T18:03:28.796Z,28.20
2017-07-09T18:05:58.252Z,27.99
2017-07-09T18:08:27.886Z,27.86
2017-07-09T18:10:57.523Z,27.60
2017-07-09T18:13:27.007Z,27.49
2017-07-09T18:15:56.471Z,27.27
2017-07-09T18:18:25.775Z,27.02
2017-07-09T18:20:56.201Z,26.79
2017-07-09T18:23:27.182Z,26.66
2017-07-09T18:25:57.377Z,26.58
2017-07-09T18:28:27.830Z,26.42
2017-07-09T18:30:58.111Z,26.29
2017-07-09T18:33:28.777Z,26.19
2017-07-09T18:35:59.027Z,26.14
2017-07-09T18:38:29.237Z,25.97
2017-07-09T18:40:59.555Z,25.94
2017-07-09T18:43:30.293Z,25.85
2017-07-09T18:46:00.721Z,25.80
2017-07-09T18:48:31.044Z,25.65
2017-07-09T18:51:01.777Z,25.55
2017-07-09T18:53:32.127Z,25.46
2017-07-09T18:56:02.459Z,25.43
2017-07-09T18:58:33.222Z,25.35
2017-07-09T19:01:04.716Z,25.20
2017-07-09T19:03:35.031Z,25.06
2017-07-09T19:06:05.490Z,24.89
2017-07-09T19:08:37.094Z,24.81
2017-07-09T19:11:08.486Z,24.93
2017-07-09T19:13:38.867Z,24.26
2017-07-09T19:16:08.961Z,23.89
2017-07-09T19:18:38.936Z,23.64
2017-07-09T19:21:09.317Z,23.54
2017-07-09T19:23:39.246Z,23.42
2017-07-09T19:26:08.909Z,23.30
2017-07-09T19:28:38.666Z,23.15
2017-07-09T19:31:09.124Z,23.00
2017-07-09T19:33:39.688Z,22.90
2017-07-09T19:36:09.773Z,22.82
2017-07-09T19:38:39.991Z,22.73
2017-07-09T19:41:10.618Z,22.65
2017-07-09T19:43:40.878Z,22.59
2017-07-09T19:46:11.412Z,22.44
2017-07-09T19:48:42.063Z,22.35
2017-07-09T19:51:12.395Z,22.22
2017-07-09T19:53:43.151Z,22.16
2017-07-09T19:56:13.668Z,22.05
2017-07-09T19:58:44.161Z,21.91
2017-07-09T20:01:14.690Z,21.89
2017-07-09T20:03:44.954Z,21.95
2017-07-09T20:06:14.979Z,22.04
2017-07-09T20:08:45.586Z,22.09
2017-07-09T20:11:15.648Z,22.02
2017-07-09T20:13:46.138Z,21.88
2017-07-09T20:16:16.684Z,21.86
2017-07-09T20:18:46.654Z,21.87
2017-07-09T20:21:16.835Z,21.79
2017-07-09T20:23:47.399Z,21.78
2017-07-09T20:26:17.471Z,21.81
2017-07-09T20:28:47.102Z,21.80
2017-07-09T20:31:17.315Z,21.78
2017-07-09T20:33:48.148Z,21.77
2017-07-09T20:36:18.077Z,21.61
2017-07-09T20:38:48.610Z,21.58
2017-07-09T20:41:19.115Z,21.57
2017-07-09T20:43:49.800Z,21.55
2017-07-09T20:46:20.083Z,21.53
2017-07-09T20:48:50.150Z,21.48
2017-07-09T20:51:20.173Z,21.47
2017-07-09T20:53:50.531Z,21.41
2017-07-09T20:56:20.962Z,21.31
2017-07-09T20:58:50.992Z,21.34
2017-07-09T21:01:20.575Z,21.31
2017-07-09T21:03:50.023Z,21.29
2017-07-09T21:06:19.134Z,21.32
2017-07-09T21:08:48.609Z,21.30
2017-07-09T21:11:18.059Z,21.30
2017-07-09T21:13:47.501Z,21.26
2017-07-09T21:16:16.971Z,21.19
2017-07-09T21:18:46.085Z,21.12
2017-07-09T21:21:15.548Z,21.09
2017-07-09T21:23:45.017Z,21.05
2017-07-09T21:26:14.498Z,20.97
2017-07-09T21:28:43.967Z,20.90
2017-07-09T21:31:13.437Z,20.90
2017-07-09T21:33:42.876Z,20.94
2017-07-09T21:36:12.340Z,20.93
2017-07-09T21:38:41.794Z,20.92
2017-07-09T21:41:11.081Z,20.90
2017-07-09T21:43:40.448Z,20.82
2017-07-09T21:46:09.901Z,20.79
2017-07-09T21:48:39.477Z,20.74
2017-07-09T21:51:08.918Z,20.74
2017-07-09T21:53:38.380Z,20.72
2017-07-09T21:56:07.818Z,20.66
2017-07-09T21:58:37.272Z,20.72
2017-07-09T22:01:06.738Z,20.75
2017-07-09T22:03:36.007Z,20.73
2017-07-09T22:06:05.466Z,20.72
2017-07-09T22:08:34.733Z,20.75
2017-07-09T22:11:04.185Z,20.79
2017-07-09T22:13:33.648Z,20.82
2017-07-09T22:16:03.124Z,20.84
2017-07-09T22:18:32.575Z,20.81
2017-07-09T22:21:02.057Z,20.78
2017-07-09T22:23:31.530Z,20.75
2017-07-09T22:26:00.993Z,20.69
2017-07-09T22:28:30.478Z,20.76
2017-07-09T22:30:59.911Z,20.75
2017-07-09T22:33:29.374Z,20.78
2017-07-09T22:35:58.835Z,20.82
2017-07-09T22:38:28.314Z,20.88
2017-07-09T22:40:57.860Z,20.90
2017-07-09T22:43:27.331Z,21.00
2017-07-09T22:45:56.595Z,21.03
2017-07-09T22:48:26.036Z,21.01
2017-07-09T22:50:55.506Z,20.99
2017-07-09T22:53:24.942Z,21.04
2017-07-09T22:55:54.389Z,21.11
2017-07-09T22:58:23.893Z,21.12
2017-07-09T23:00:53.361Z,21.09
2017-07-09T23:03:22.863Z,20.96
2017-07-09T23:05:52.313Z,20.91
2017-07-09T23:08:21.753Z,20.85
2017-07-09T23:10:51.192Z,20.85
2017-07-09T23:13:20.637Z,20.84
2017-07-09T23:15:50.113Z,20.76
2017-07-09T23:18:19.566Z,20.74
2017-07-09T23:20:49.018Z,20.69
2017-07-09T23:23:18.469Z,20.61
2017-07-09T23:25:47.931Z,20.54
2017-07-09T23:28:17.390Z,20.49
2017-07-09T23:30:46.841Z,20.44
2017-07-09T23:33:16.294Z,20.40
2017-07-09T23:35:45.769Z,20.35
2017-07-09T23:38:15.462Z,20.36
2017-07-09T23:40:44.909Z,20.35
2017-07-09T23:43:14.385Z,20.35
2017-07-09T23:45:43.839Z,20.32
2017-07-09T23:48:13.327Z,20.27
2017-07-09T23:50:42.767Z,20.21
2017-07-09T23:53:12.242Z,20.19
2017-07-09T23:55:41.686Z,20.16
2017-07-09T23:58:11.142Z,20.15
